Time;durP1;ratioP1;P1;durP2;ratioP2;P2;SDS_P1;SDS_P2;PMS_P1;PMS_P2;Temp;Humidity;BMP_temperature;BMP_pressure;BME280_temperature;BME280_humidity;BME280_pressure;Samples;Min_cycle;Max_cycle;Signal;HPM_P1;HPM_P2
2024/02/07 00:00:54;;;;;;;26.13;24.30;;;;;;;;;;5097918;28;20460;-79
2024/02/07 00:03:21;;;;;;;29.03;26.37;;;;;;;;;;5098317;28;20488;-79
2024/02/07 00:05:49;;;;;;;31.10;28.80;;;;;;;;;;5097658;28;20433;-79
2024/02/07 00:08:18;;;;;;;27.10;25.33;;;;;;;;;;5096576;28;20461;-79
2024/02/07 00:10:45;;;;;;;27.50;25.70;;;;;;;;;;5093514;28;20855;-78
2024/02/07 00:13:12;;;;;;;27.50;25.77;;;;;;;;;;5093175;28;20447;-78
2024/02/07 00:15:40;;;;;;;26.83;25.17;;;;;;;;;;5093796;28;20456;-79
2024/02/07 00:18:08;;;;;;;26.57;24.90;;;;;;;;;;5094255;28;20472;-80
2024/02/07 00:20:35;;;;;;;27.10;25.47;;;;;;;;;;5095560;28;20452;-79
2024/02/07 00:23:07;;;;;;;28.77;26.80;;;;;;;;;;5096770;28;20520;-79
2024/02/07 00:25:35;;;;;;;26.63;24.80;;;;;;;;;;5096721;28;20455;-80
2024/02/07 00:28:02;;;;;;;26.13;24.67;;;;;;;;;;5079542;28;20465;-79
2024/02/07 00:30:29;;;;;;;27.80;26.00;;;;;;;;;;5092347;28;21006;-80
2024/02/07 00:32:56;;;;;;;27.67;26.07;;;;;;;;;;5097510;28;20456;-81
2024/02/07 00:35:23;;;;;;;25.70;24.43;;;;;;;;;;5098107;28;20453;-79
2024/02/07 00:37:52;;;;;;;29.30;27.33;;;;;;;;;;5080967;28;20470;-79
2024/02/07 00:40:19;;;;;;;28.73;27.10;;;;;;;;;;5085245;28;20461;-81
2024/02/07 00:42:49;;;;;;;26.17;24.70;;;;;;;;;;5088950;28;20493;-79
2024/02/07 00:45:17;;;;;;;26.43;24.93;;;;;;;;;;5097289;28;20816;-81
2024/02/07 00:47:46;;;;;;;28.00;26.40;;;;;;;;;;5096512;28;20502;-80
2024/02/07 00:50:13;;;;;;;27.90;26.20;;;;;;;;;;5097083;28;20486;-79
2024/02/07 00:52:40;;;;;;;26.07;24.47;;;;;;;;;;5083591;28;20471;-79
2024/02/07 00:55:09;;;;;;;24.20;22.70;;;;;;;;;;5076637;28;20453;-79
2024/02/07 00:57:36;;;;;;;30.33;27.90;;;;;;;;;;5076073;28;20531;-79
2024/02/07 01:00:04;;;;;;;26.63;24.90;;;;;;;;;;5077051;28;20511;-80
2024/02/07 01:02:31;;;;;;;25.63;24.17;;;;;;;;;;5076722;28;20446;-79
2024/02/07 01:04:58;;;;;;;27.60;26.03;;;;;;;;;;5076778;28;20492;-81
2024/02/07 01:07:26;;;;;;;28.60;27.10;;;;;;;;;;5076362;28;20900;-79
2024/02/07 01:09:53;;;;;;;30.17;28.27;;;;;;;;;;5076334;28;20532;-79
2024/02/07 01:12:20;;;;;;;32.53;30.80;;;;;;;;;;5077729;28;20474;-79
2024/02/07 01:14:47;;;;;;;48.60;45.67;;;;;;;;;;5077088;28;20993;-80
2024/02/07 01:17:15;;;;;;;64.17;59.00;;;;;;;;;;5077600;28;21454;-81
2024/02/07 01:19:43;;;;;;;52.80;48.97;;;;;;;;;;5080955;28;20445;-83
2024/02/07 01:22:10;;;;;;;50.77;47.20;;;;;;;;;;5081235;28;20673;-85
2024/02/07 01:24:37;;;;;;;38.30;35.43;;;;;;;;;;5081665;28;20796;-82
2024/02/07 01:27:07;;;;;;;36.73;34.17;;;;;;;;;;5081447;28;20560;-83
2024/02/07 01:29:35;;;;;;;36.00;33.40;;;;;;;;;;5081926;28;20460;-84
2024/02/07 01:32:04;;;;;;;31.00;29.00;;;;;;;;;;5081868;28;20445;-84
2024/02/07 01:34:35;;;;;;;30.23;28.13;;;;;;;;;;5085897;28;20518;-82
2024/02/07 01:37:02;;;;;;;30.33;28.43;;;;;;;;;;5084144;28;20450;-82
2024/02/07 01:39:32;;;;;;;29.00;27.20;;;;;;;;;;5085355;28;20454;-84
2024/02/07 01:41:59;;;;;;;29.93;28.03;;;;;;;;;;5085119;28;20449;-82
2024/02/07 01:44:29;;;;;;;29.70;27.87;;;;;;;;;;5084953;28;20481;-83
2024/02/07 01:47:18;;;;;;;28.00;26.10;;;;;;;;;;5083557;28;20468;-83
2024/02/07 01:49:49;;;;;;;28.10;25.90;;;;;;;;;;5086854;28;20457;-83
2024/02/07 01:52:18;;;;;;;28.37;26.47;;;;;;;;;;5104455;28;20531;-83
2024/02/07 01:54:45;;;;;;;26.80;24.90;;;;;;;;;;5104841;28;20517;-83
2024/02/07 01:57:13;;;;;;;27.47;25.60;;;;;;;;;;5104248;28;20539;-83
2024/02/07 01:59:41;;;;;;;27.73;25.90;;;;;;;;;;5084061;28;20449;-83
2024/02/07 02:02:09;;;;;;;27.80;25.73;;;;;;;;;;5084920;28;20441;-81
2024/02/07 02:04:37;;;;;;;28.70;26.20;;;;;;;;;;5084577;28;20485;-83
2024/02/07 02:07:06;;;;;;;28.07;25.70;;;;;;;;;;5084072;28;20557;-82
2024/02/07 02:09:34;;;;;;;29.17;27.10;;;;;;;;;;5083937;28;20476;-83
2024/02/07 02:12:01;;;;;;;29.90;27.80;;;;;;;;;;5084248;28;20492;-82
2024/02/07 02:14:29;;;;;;;29.10;26.10;;;;;;;;;;5084380;28;20463;-83
2024/02/07 02:16:56;;;;;;;29.10;27.00;;;;;;;;;;5082973;28;20460;-82
2024/02/07 02:19:23;;;;;;;29.57;27.20;;;;;;;;;;5083876;28;20533;-82
2024/02/07 02:22:04;;;;;;;29.83;27.50;;;;;;;;;;5084150;28;20449;-82
2024/02/07 02:24:51;;;;;;;34.40;31.47;;;;;;;;;;5084091;28;20477;-82
2024/02/07 02:27:29;;;;;;;31.80;29.37;;;;;;;;;;5083413;28;20444;-82
2024/02/07 02:29:59;;;;;;;33.00;30.70;;;;;;;;;;5083742;28;20445;-83
2024/02/07 02:32:27;;;;;;;33.47;30.77;;;;;;;;;;5083384;28;20278;-81
2024/02/07 02:34:54;;;;;;;33.67;30.83;;;;;;;;;;5083755;28;20449;-83
2024/02/07 02:37:21;;;;;;;34.00;31.40;;;;;;;;;;5083056;28;20510;-82
2024/02/07 02:39:49;;;;;;;37.07;34.40;;;;;;;;;;5083668;28;20761;-83
2024/02/07 02:42:17;;;;;;;39.13;36.63;;;;;;;;;;5090575;28;20521;-82
2024/02/07 02:44:46;;;;;;;38.27;35.47;;;;;;;;;;5082121;28;20508;-82
2024/02/07 02:47:15;;;;;;;39.70;36.73;;;;;;;;;;5082282;28;20862;-83
2024/02/07 02:49:43;;;;;;;40.63;37.40;;;;;;;;;;5083121;28;20461;-82
2024/02/07 02:52:10;;;;;;;42.77;39.47;;;;;;;;;;5083182;28;20828;-83
2024/02/07 02:54:37;;;;;;;44.53;40.40;;;;;;;;;;5083029;28;20926;-84
2024/02/07 02:57:07;;;;;;;45.60;42.37;;;;;;;;;;5087013;28;20967;-81
2024/02/07 02:59:35;;;;;;;45.80;42.60;;;;;;;;;;5103235;28;20439;-81
2024/02/07 03:02:08;;;;;;;50.70;47.07;;;;;;;;;;5102771;28;20493;-82
2024/02/07 03:04:41;;;;;;;46.23;43.03;;;;;;;;;;5103594;28;20472;-82
2024/02/07 03:07:36;;;;;;;43.97;40.80;;;;;;;;;;5102504;28;20445;-82
2024/02/07 03:10:04;;;;;;;48.73;44.73;;;;;;;;;;5102537;28;20447;-83
2024/02/07 03:12:32;;;;;;;48.73;45.40;;;;;;;;;;5103516;28;20453;-82
2024/02/07 03:14:59;;;;;;;48.47;45.00;;;;;;;;;;5102731;28;20448;-82
2024/02/07 03:17:26;;;;;;;53.35;49.60;;;;;;;;;;5102319;28;20600;-82
2024/02/07 03:19:55;;;;;;;54.73;50.97;;;;;;;;;;5103003;28;20227;-84
2024/02/07 03:22:22;;;;;;;54.90;50.77;;;;;;;;;;5103087;28;20500;-83
2024/02/07 03:24:55;;;;;;;55.47;51.70;;;;;;;;;;5103112;28;20984;-83
2024/02/07 03:27:22;;;;;;;61.10;57.17;;;;;;;;;;5101558;28;20447;-83
2024/02/07 03:29:49;;;;;;;65.10;61.00;;;;;;;;;;5101610;28;20498;-82
2024/02/07 03:32:19;;;;;;;61.53;57.70;;;;;;;;;;5102221;28;20260;-83
2024/02/07 03:34:47;;;;;;;63.47;59.30;;;;;;;;;;5102520;28;20195;-83
2024/02/07 03:37:15;;;;;;;64.43;60.42;;;;;;;;;;5093928;28;20541;-83
2024/02/07 03:39:43;;;;;;;66.72;62.67;;;;;;;;;;5082136;28;20235;-83
2024/02/07 03:42:10;;;;;;;71.07;66.13;;;;;;;;;;5081770;28;20302;-83
2024/02/07 03:44:40;;;;;;;67.37;63.43;;;;;;;;;;5081042;28;20223;-84
2024/02/07 03:47:09;;;;;;;67.03;63.33;;;;;;;;;;5081045;28;20464;-82
2024/02/07 03:49:37;;;;;;;67.75;64.00;;;;;;;;;;5082921;28;20448;-83
2024/02/07 03:52:06;;;;;;;72.10;68.17;;;;;;;;;;5082119;28;20235;-83
2024/02/07 03:54:40;;;;;;;68.53;64.83;;;;;;;;;;5081979;28;20442;-84
2024/02/07 03:57:08;;;;;;;77.80;73.90;;;;;;;;;;5090103;28;20432;-85
2024/02/07 03:59:35;;;;;;;73.72;69.18;;;;;;;;;;5097151;28;20190;-85
2024/02/07 04:02:02;;;;;;;73.18;69.38;;;;;;;;;;5085214;28;20208;-83
2024/02/07 04:04:29;;;;;;;90.00;85.57;;;;;;;;;;5091132;28;20554;-84
2024/02/07 04:06:58;;;;;;;90.07;85.40;;;;;;;;;;5097844;28;20452;-83
2024/02/07 04:09:25;;;;;;;89.18;84.25;;;;;;;;;;5099822;28;20225;-83
2024/02/07 05:17:18;;;;;;;74.22;69.82;;;;;;;;;;5080398;28;20211;-84
2024/02/07 05:19:48;;;;;;;137.67;124.00;;;;;;;;;;5100064;28;20187;-83
2024/02/07 05:22:16;;;;;;;92.50;85.95;;;;;;;;;;5099687;28;20444;-83
2024/02/07 05:24:44;;;;;;;79.32;75.07;;;;;;;;;;5099518;28;20215;-83
2024/02/07 05:27:12;;;;;;;75.15;71.15;;;;;;;;;;5093557;28;20207;-84
2024/02/07 05:29:39;;;;;;;96.53;90.07;;;;;;;;;;5083986;28;20195;-84
2024/02/07 05:32:06;;;;;;;91.50;85.82;;;;;;;;;;5099202;28;20260;-84
2024/02/07 05:34:35;;;;;;;77.00;73.00;;;;;;;;;;5099828;28;20256;-84
2024/02/07 05:37:02;;;;;;;76.60;72.55;;;;;;;;;;5099191;28;20211;-85
2024/02/07 05:39:31;;;;;;;75.30;70.75;;;;;;;;;;5099134;28;20298;-84
2024/02/07 05:41:58;;;;;;;75.10;71.32;;;;;;;;;;5099150;28;20308;-83
2024/02/07 05:44:25;;;;;;;73.75;70.05;;;;;;;;;;5099818;28;20284;-84
2024/02/07 05:46:52;;;;;;;72.85;68.60;;;;;;;;;;5097228;28;20211;-83
2024/02/07 05:49:19;;;;;;;73.70;69.70;;;;;;;;;;5099620;28;20305;-84
2024/02/07 05:51:57;;;;;;;74.72;70.82;;;;;;;;;;5099518;28;20270;-84
2024/02/07 05:54:24;;;;;;;73.68;69.45;;;;;;;;;;5087776;28;20199;-84
2024/02/07 05:56:51;;;;;;;73.47;69.32;;;;;;;;;;5078080;28;20207;-82
2024/02/07 05:59:19;;;;;;;73.18;69.45;;;;;;;;;;5087652;28;20250;-83
2024/02/07 06:01:47;;;;;;;73.20;69.20;;;;;;;;;;5084175;28;20203;-82
2024/02/07 06:04:14;;;;;;;75.80;71.72;;;;;;;;;;5098147;28;20495;-84
2024/02/07 06:06:42;;;;;;;74.45;70.10;;;;;;;;;;5098010;28;20195;-83
2024/02/07 06:09:10;;;;;;;77.88;73.97;;;;;;;;;;5097222;28;20619;-81
2024/02/07 06:11:41;;;;;;;79.28;74.75;;;;;;;;;;5098062;28;20211;-81
2024/02/07 06:14:08;;;;;;;76.85;72.47;;;;;;;;;;5085692;28;20204;-83
2024/02/07 06:16:35;;;;;;;81.60;77.00;;;;;;;;;;5077814;28;20218;-82
2024/02/07 06:19:03;;;;;;;81.88;77.38;;;;;;;;;;5090058;28;20292;-80
2024/02/07 06:21:30;;;;;;;85.57;80.90;;;;;;;;;;5092850;28;20257;-80
2024/02/07 06:23:57;;;;;;;87.57;82.75;;;;;;;;;;5088379;28;20210;-81
2024/02/07 06:26:26;;;;;;;84.72;79.80;;;;;;;;;;5100903;28;20202;-83
2024/02/07 06:28:53;;;;;;;81.18;77.07;;;;;;;;;;5101186;28;20226;-83
2024/02/07 06:31:21;;;;;;;86.13;81.30;;;;;;;;;;5099494;28;20261;-82
2024/02/07 06:33:48;;;;;;;83.47;78.85;;;;;;;;;;5100810;28;20206;-82
2024/02/07 06:36:15;;;;;;;84.20;79.68;;;;;;;;;;5100823;28;20321;-82
2024/02/07 06:38:43;;;;;;;80.30;75.95;;;;;;;;;;5101924;28;20227;-82
2024/02/07 06:41:10;;;;;;;81.32;76.93;;;;;;;;;;5101690;28;20527;-82
2024/02/07 06:43:38;;;;;;;75.80;71.50;;;;;;;;;;5093603;28;20257;-83
2024/02/07 06:46:05;;;;;;;78.68;74.47;;;;;;;;;;5089814;28;20288;-83
2024/02/07 06:48:32;;;;;;;78.13;73.32;;;;;;;;;;5089317;28;20227;-83
2024/02/07 06:50:59;;;;;;;76.90;72.72;;;;;;;;;;5089787;28;20203;-84
2024/02/07 06:53:26;;;;;;;77.97;74.00;;;;;;;;;;5083591;28;20207;-82
2024/02/07 06:55:54;;;;;;;78.40;74.30;;;;;;;;;;5080941;28;20234;-82
2024/02/07 06:58:21;;;;;;;77.63;73.60;;;;;;;;;;5083726;28;20231;-83
2024/02/07 07:00:51;;;;;;;88.03;83.53;;;;;;;;;;5104040;28;20210;-83
2024/02/07 07:03:18;;;;;;;88.28;83.28;;;;;;;;;;5100947;28;20206;-84
2024/02/07 07:05:48;;;;;;;83.43;78.65;;;;;;;;;;5101519;28;20264;-83
2024/02/07 07:08:17;;;;;;;90.00;85.03;;;;;;;;;;5100834;28;20258;-82
2024/02/07 07:10:45;;;;;;;83.50;78.88;;;;;;;;;;5100829;28;20199;-83
2024/02/07 07:13:14;;;;;;;90.65;85.78;;;;;;;;;;5101477;28;20217;-82
2024/02/07 07:15:41;;;;;;;83.13;78.35;;;;;;;;;;5086534;28;20291;-83
2024/02/07 07:18:09;;;;;;;85.93;80.68;;;;;;;;;;5080179;28;20699;-83
2024/02/07 07:20:37;;;;;;;83.47;78.57;;;;;;;;;;5082306;28;20678;-83
2024/02/07 07:23:04;;;;;;;80.85;76.05;;;;;;;;;;5081192;28;20187;-83
2024/02/07 07:25:32;;;;;;;81.03;75.97;;;;;;;;;;5096236;28;20249;-83
2024/02/07 07:27:59;;;;;;;81.22;76.15;;;;;;;;;;5093916;28;20283;-83
2024/02/07 07:30:26;;;;;;;81.43;77.18;;;;;;;;;;5095369;28;20211;-82
2024/02/07 07:32:53;;;;;;;81.60;77.10;;;;;;;;;;5080475;28;20211;-82
2024/02/07 07:35:21;;;;;;;81.50;76.53;;;;;;;;;;5080250;28;20820;-81
2024/02/07 07:37:48;;;;;;;84.10;79.25;;;;;;;;;;5080257;28;20640;-82
2024/02/07 07:40:17;;;;;;;83.20;78.80;;;;;;;;;;5081723;28;20211;-81
2024/02/07 07:42:45;;;;;;;83.07;78.38;;;;;;;;;;5097867;28;20249;-83
2024/02/07 07:45:12;;;;;;;78.53;74.30;;;;;;;;;;5117740;28;20271;-84
2024/02/07 07:47:40;;;;;;;78.18;73.95;;;;;;;;;;5098139;28;20223;-81
2024/02/07 07:50:07;;;;;;;82.50;78.10;;;;;;;;;;5095282;28;20202;-80
2024/02/07 07:52:35;;;;;;;86.03;81.43;;;;;;;;;;5096714;28;20203;-80
2024/02/07 07:55:03;;;;;;;88.95;83.05;;;;;;;;;;5097498;28;20547;-81
2024/02/07 07:57:30;;;;;;;85.70;80.85;;;;;;;;;;5096628;28;20923;-82
2024/02/07 07:59:57;;;;;;;85.43;80.15;;;;;;;;;;5078777;28;20195;-79
2024/02/07 08:02:24;;;;;;;82.45;77.88;;;;;;;;;;5077758;28;20207;-80
2024/02/07 08:04:51;;;;;;;90.97;85.05;;;;;;;;;;5078122;28;20242;-79
2024/02/07 08:07:18;;;;;;;87.45;82.05;;;;;;;;;;5077096;28;20231;-80
2024/02/07 08:09:47;;;;;;;85.53;80.63;;;;;;;;;;5078199;28;20301;-80
2024/02/07 08:12:14;;;;;;;83.93;79.30;;;;;;;;;;5078474;28;20222;-81
2024/02/07 08:14:42;;;;;;;85.18;79.38;;;;;;;;;;5078834;28;20549;-81
2024/02/07 08:17:10;;;;;;;85.85;80.38;;;;;;;;;;5077485;28;20294;-81
2024/02/07 08:19:37;;;;;;;83.50;78.60;;;;;;;;;;5078421;28;20505;-86
2024/02/07 08:22:04;;;;;;;84.97;79.65;;;;;;;;;;5093798;28;20203;-89
2024/02/07 08:24:31;;;;;;;90.40;84.75;;;;;;;;;;5095881;28;20210;-87
2024/02/07 08:27:07;;;;;;;88.13;82.57;;;;;;;;;;5078711;28;20207;-87
2024/02/07 08:29:35;;;;;;;91.80;86.28;;;;;;;;;;5078767;28;20207;-81
2024/02/07 08:32:03;;;;;;;82.68;77.72;;;;;;;;;;5078087;28;20203;-80
2024/02/07 08:34:30;;;;;;;87.13;81.72;;;;;;;;;;5079162;28;20601;-82
2024/02/07 08:36:57;;;;;;;87.15;82.07;;;;;;;;;;5077545;28;20233;-86
2024/02/07 08:39:24;;;;;;;88.80;83.07;;;;;;;;;;5078961;28;21000;-81
2024/02/07 08:41:54;;;;;;;89.72;83.88;;;;;;;;;;5076248;28;20199;-75
2024/02/07 08:44:25;;;;;;;89.60;83.63;;;;;;;;;;5071115;28;20241;-78
2024/02/07 08:46:52;;;;;;;91.75;86.18;;;;;;;;;;5070344;28;20306;-76
2024/02/07 08:49:20;;;;;;;88.35;82.95;;;;;;;;;;5070778;28;20742;-79
2024/02/07 08:51:48;;;;;;;85.68;80.15;;;;;;;;;;5071441;28;20243;-78
2024/02/07 08:54:15;;;;;;;89.07;83.93;;;;;;;;;;5072265;28;20655;-78
2024/02/07 08:56:42;;;;;;;88.65;83.45;;;;;;;;;;5071639;28;20244;-76
2024/02/07 08:59:09;;;;;;;89.50;83.93;;;;;;;;;;5071231;28;20227;-78
2024/02/07 09:01:37;;;;;;;91.20;85.50;;;;;;;;;;5070904;28;20229;-78
2024/02/07 09:04:05;;;;;;;86.45;80.80;;;;;;;;;;5071092;28;20208;-78
2024/02/07 09:06:32;;;;;;;93.75;87.10;;;;;;;;;;5070229;28;20216;-78
2024/02/07 09:08:59;;;;;;;87.97;82.00;;;;;;;;;;5071588;28;20227;-77
2024/02/07 09:11:28;;;;;;;93.45;87.10;;;;;;;;;;5083143;28;20202;-77
2024/02/07 09:13:55;;;;;;;86.63;80.85;;;;;;;;;;5076286;28;20207;-76
2024/02/07 09:16:22;;;;;;;88.05;82.63;;;;;;;;;;5069996;28;20784;-78
2024/02/07 09:18:52;;;;;;;90.20;83.40;;;;;;;;;;5070178;28;20239;-78
2024/02/07 09:21:20;;;;;;;92.22;86.07;;;;;;;;;;5070943;28;20565;-76
2024/02/07 09:23:47;;;;;;;92.57;86.38;;;;;;;;;;5070461;28;20601;-77
2024/02/07 09:26:14;;;;;;;94.13;88.13;;;;;;;;;;5069599;28;20223;-77
2024/02/07 09:28:42;;;;;;;90.35;84.30;;;;;;;;;;5076380;28;20272;-77
2024/02/07 09:31:09;;;;;;;94.50;88.03;;;;;;;;;;5111530;28;20239;-77
2024/02/07 09:33:38;;;;;;;88.85;82.15;;;;;;;;;;5111459;28;20206;-77
2024/02/07 09:36:06;;;;;;;91.43;85.50;;;;;;;;;;5112404;28;20293;-81
2024/02/07 09:38:33;;;;;;;90.45;83.88;;;;;;;;;;5115132;28;20226;-79
2024/02/07 09:41:03;;;;;;;92.38;86.28;;;;;;;;;;5115175;28;20206;-78
2024/02/07 09:43:30;;;;;;;92.22;86.18;;;;;;;;;;5113743;28;20202;-78
2024/02/07 09:45:58;;;;;;;91.80;85.10;;;;;;;;;;5112238;28;20236;-78
2024/02/07 09:48:25;;;;;;;89.60;83.65;;;;;;;;;;5111623;28;20225;-78
2024/02/07 09:50:52;;;;;;;95.00;87.72;;;;;;;;;;5112372;28;20202;-79
2024/02/07 09:53:22;;;;;;;95.53;89.38;;;;;;;;;;5089708;28;20609;-79
2024/02/07 09:55:51;;;;;;;87.82;82.38;;;;;;;;;;5077299;28;20195;-78
2024/02/07 09:58:19;;;;;;;87.28;81.57;;;;;;;;;;5078537;28;20225;-78
2024/02/07 10:00:46;;;;;;;92.75;86.53;;;;;;;;;;5095474;28;20206;-78
2024/02/07 10:03:15;;;;;;;89.82;84.13;;;;;;;;;;5095016;28;20220;-77
2024/02/07 10:05:44;;;;;;;91.72;85.93;;;;;;;;;;5094651;28;20284;-77
2024/02/07 10:08:12;;;;;;;84.80;79.65;;;;;;;;;;5093825;28;20226;-78
2024/02/07 10:10:41;;;;;;;83.72;78.93;;;;;;;;;;5095289;28;20203;-78
2024/02/07 10:13:09;;;;;;;81.05;75.90;;;;;;;;;;5094585;28;20187;-78
2024/02/07 10:15:37;;;;;;;83.90;77.45;;;;;;;;;;5096105;28;20207;-78
2024/02/07 10:18:05;;;;;;;83.57;77.85;;;;;;;;;;5086611;28;20239;-82
2024/02/07 10:20:32;;;;;;;86.70;80.90;;;;;;;;;;5077467;28;20585;-78
2024/02/07 10:22:59;;;;;;;86.93;81.72;;;;;;;;;;5078715;28;20200;-80
2024/02/07 10:25:27;;;;;;;81.25;75.88;;;;;;;;;;5076635;28;20231;-78
2024/02/07 10:28:03;;;;;;;80.95;75.72;;;;;;;;;;5075194;28;20223;-78
2024/02/07 10:30:30;;;;;;;79.82;75.00;;;;;;;;;;5075095;28;20179;-78
2024/02/07 10:32:57;;;;;;;78.05;73.40;;;;;;;;;;5073542;28;20207;-77
2024/02/07 10:35:25;;;;;;;78.93;74.13;;;;;;;;;;5074117;28;20265;-78
2024/02/07 10:37:53;;;;;;;81.72;75.97;;;;;;;;;;5073154;28;20230;-77
2024/02/07 10:40:20;;;;;;;81.63;76.50;;;;;;;;;;5073674;28;20203;-78
2024/02/07 10:42:54;;;;;;;80.82;75.68;;;;;;;;;;5073778;28;20207;-77
2024/02/07 10:45:23;;;;;;;81.72;76.63;;;;;;;;;;5073672;28;20287;-77
2024/02/07 10:47:52;;;;;;;84.88;79.78;;;;;;;;;;5072671;28;20224;-80
2024/02/07 10:50:21;;;;;;;83.53;77.97;;;;;;;;;;5091020;28;20559;-77
2024/02/07 10:52:49;;;;;;;80.72;75.63;;;;;;;;;;5093353;28;20248;-77
2024/02/07 10:55:18;;;;;;;82.55;76.93;;;;;;;;;;5093452;28;20203;-76
2024/02/07 10:57:47;;;;;;;77.25;72.50;;;;;;;;;;5095414;28;20238;-78
2024/02/07 11:00:14;;;;;;;82.25;76.55;;;;;;;;;;5095798;28;20295;-78
2024/02/07 11:02:45;;;;;;;78.10;72.80;;;;;;;;;;5095397;28;20203;-79
2024/02/07 11:05:13;;;;;;;80.00;75.22;;;;;;;;;;5094753;28;20639;-78
2024/02/07 11:07:40;;;;;;;77.75;72.70;;;;;;;;;;5093568;28;20222;-81
2024/02/07 11:10:08;;;;;;;79.38;74.10;;;;;;;;;;5098515;28;20228;-80
2024/02/07 11:12:35;;;;;;;73.45;68.70;;;;;;;;;;5078072;28;20208;-83
2024/02/07 11:15:04;;;;;;;72.25;68.13;;;;;;;;;;5080368;28;20211;-83
2024/02/07 11:17:31;;;;;;;73.78;68.97;;;;;;;;;;5084226;28;21285;-83
2024/02/07 11:20:00;;;;;;;80.50;75.28;;;;;;;;;;5080054;28;20253;-83
2024/02/07 11:22:30;;;;;;;77.95;73.20;;;;;;;;;;5080263;28;20258;-83
2024/02/07 11:24:58;;;;;;;73.50;68.80;;;;;;;;;;5080965;28;20256;-83
2024/02/07 11:27:26;;;;;;;71.40;66.85;;;;;;;;;;5083468;28;21643;-84
2024/02/07 11:29:55;;;;;;;71.03;66.50;;;;;;;;;;5097994;28;20221;-84
2024/02/07 11:32:22;;;;;;;72.20;67.20;;;;;;;;;;5094349;28;20214;-81
2024/02/07 11:34:53;;;;;;;73.28;68.13;;;;;;;;;;5075914;28;20215;-83
2024/02/07 11:37:24;;;;;;;73.95;68.80;;;;;;;;;;5077145;28;20266;-82
2024/02/07 11:39:51;;;;;;;71.03;66.55;;;;;;;;;;5079040;28;20192;-83
2024/02/07 11:42:20;;;;;;;73.88;68.93;;;;;;;;;;5098625;28;20240;-86
2024/02/07 11:44:52;;;;;;;73.82;69.28;;;;;;;;;;5099206;28;20217;-83
2024/02/07 11:47:30;;;;;;;72.82;67.90;;;;;;;;;;5098463;28;20227;-84
2024/02/07 11:49:58;;;;;;;73.53;69.07;;;;;;;;;;5098490;28;20248;-80
2024/02/07 11:52:30;;;;;;;71.45;66.65;;;;;;;;;;5099381;28;20532;-79
2024/02/07 11:55:04;;;;;;;69.95;65.35;;;;;;;;;;5099702;28;20211;-79
2024/02/07 11:57:32;;;;;;;67.50;63.60;;;;;;;;;;5096985;28;20249;-81
2024/02/07 12:00:20;;;;;;;67.82;63.83;;;;;;;;;;5099004;28;20233;-81
2024/02/07 12:02:47;;;;;;;68.68;64.47;;;;;;;;;;5093703;28;20249;-81
2024/02/07 12:05:15;;;;;;;66.15;62.17;;;;;;;;;;5095436;28;20566;-83
2024/02/07 12:07:44;;;;;;;65.53;61.45;;;;;;;;;;5078600;28;20227;-83
2024/02/07 12:10:12;;;;;;;62.20;58.70;;;;;;;;;;5077312;28;20671;-82
2024/02/07 12:12:39;;;;;;;66.22;62.05;;;;;;;;;;5093949;28;20230;-76
2024/02/07 12:15:07;;;;;;;61.47;57.88;;;;;;;;;;5091102;28;20628;-78
2024/02/07 12:17:34;;;;;;;58.72;55.38;;;;;;;;;;5089854;28;20284;-77
2024/02/07 12:20:04;;;;;;;60.58;56.63;;;;;;;;;;5091383;28;20690;-76
2024/02/07 12:22:31;;;;;;;60.28;56.30;;;;;;;;;;5070686;28;20207;-76
2024/02/07 12:25:02;;;;;;;61.58;57.60;;;;;;;;;;5082403;28;20207;-76
2024/02/07 12:27:30;;;;;;;58.95;54.55;;;;;;;;;;5090294;28;20257;-75
2024/02/07 12:29:59;;;;;;;56.60;52.80;;;;;;;;;;5091458;28;20211;-76
2024/02/07 12:32:27;;;;;;;60.42;56.45;;;;;;;;;;5091116;28;20242;-76
2024/02/07 12:34:54;;;;;;;61.28;56.88;;;;;;;;;;5091143;28;20677;-75
2024/02/07 12:37:22;;;;;;;63.92;59.58;;;;;;;;;;5090659;28;20223;-76
2024/02/07 12:39:49;;;;;;;63.35;59.15;;;;;;;;;;5091380;28;20263;-76
2024/02/07 12:42:18;;;;;;;64.70;59.95;;;;;;;;;;5090989;28;20252;-75
2024/02/07 12:44:45;;;;;;;59.88;55.92;;;;;;;;;;5091070;28;20207;-76
2024/02/07 12:47:13;;;;;;;59.67;55.70;;;;;;;;;;5090069;28;20222;-75
2024/02/07 12:49:40;;;;;;;57.30;53.22;;;;;;;;;;5090877;28;20199;-76
2024/02/07 12:52:08;;;;;;;56.83;53.33;;;;;;;;;;5091081;28;20210;-75
2024/02/07 12:54:35;;;;;;;61.33;57.30;;;;;;;;;;5091151;28;20207;-74
2024/02/07 12:57:03;;;;;;;58.95;55.05;;;;;;;;;;5090235;28;20936;-76
2024/02/07 12:59:34;;;;;;;59.63;55.38;;;;;;;;;;5091801;28;20203;-75
2024/02/07 13:02:03;;;;;;;56.13;52.47;;;;;;;;;;5091136;28;20212;-76
2024/02/07 13:04:30;;;;;;;59.55;55.50;;;;;;;;;;5090650;28;20539;-76
2024/02/07 13:06:59;;;;;;;60.63;57.05;;;;;;;;;;5090242;28;20230;-77
2024/02/07 13:09:40;;;;;;;53.67;50.17;;;;;;;;;;5090484;28;20210;-77
2024/02/07 13:12:08;;;;;;;50.50;47.55;;;;;;;;;;5090727;28;20547;-76
2024/02/07 13:14:38;;;;;;;49.85;46.22;;;;;;;;;;5090711;28;20203;-76
2024/02/07 13:17:05;;;;;;;46.40;43.22;;;;;;;;;;5090061;28;20291;-75
2024/02/07 13:19:32;;;;;;;47.23;43.93;;;;;;;;;;5090363;28;20206;-76
2024/02/07 13:21:59;;;;;;;42.10;39.30;;;;;;;;;;5089489;28;20441;-76
2024/02/07 13:24:26;;;;;;;39.65;36.65;;;;;;;;;;5090690;28;20248;-76
2024/02/07 13:26:53;;;;;;;38.17;35.75;;;;;;;;;;5090008;28;20226;-75
2024/02/07 13:29:21;;;;;;;38.03;35.42;;;;;;;;;;5086142;28;20219;-75
2024/02/07 13:31:50;;;;;;;37.72;35.10;;;;;;;;;;5097501;28;20265;-77
2024/02/07 13:34:19;;;;;;;36.88;34.55;;;;;;;;;;5097818;28;20209;-78
2024/02/07 13:36:46;;;;;;;39.72;36.90;;;;;;;;;;5096660;28;20265;-76
2024/02/07 13:39:13;;;;;;;39.63;36.75;;;;;;;;;;5096737;28;20280;-75
2024/02/07 13:41:41;;;;;;;39.60;37.00;;;;;;;;;;5097388;28;20560;-76
2024/02/07 13:44:12;;;;;;;40.35;37.38;;;;;;;;;;5096694;28;20730;-76
2024/02/07 13:46:41;;;;;;;43.43;40.33;;;;;;;;;;5083125;28;20231;-75
2024/02/07 13:49:11;;;;;;;41.78;38.95;;;;;;;;;;5080414;28;20476;-77
2024/02/07 13:51:39;;;;;;;44.13;41.37;;;;;;;;;;5096714;28;20658;-78
2024/02/07 13:54:07;;;;;;;38.17;35.35;;;;;;;;;;5083534;28;20442;-75
2024/02/07 13:56:34;;;;;;;37.50;35.30;;;;;;;;;;5075805;28;20207;-74
2024/02/07 13:59:02;;;;;;;40.13;36.65;;;;;;;;;;5075967;28;20498;-74
2024/02/07 14:01:30;;;;;;;40.58;37.25;;;;;;;;;;5076605;28;20651;-75
2024/02/07 14:03:59;;;;;;;38.28;35.00;;;;;;;;;;5078666;28;20214;-75
2024/02/07 14:06:38;;;;;;;37.00;34.50;;;;;;;;;;5077445;28;20290;-73
2024/02/07 14:09:07;;;;;;;45.78;42.13;;;;;;;;;;5075407;28;20227;-74
2024/02/07 14:11:40;;;;;;;37.80;34.83;;;;;;;;;;5076179;28;20740;-75
2024/02/07 14:14:07;;;;;;;39.97;37.45;;;;;;;;;;5076363;28;20207;-74
2024/02/07 14:16:36;;;;;;;40.60;35.90;;;;;;;;;;5075330;28;20670;-74
2024/02/07 14:19:04;;;;;;;45.05;40.95;;;;;;;;;;5075368;28;20238;-73
2024/02/07 14:21:31;;;;;;;38.97;35.30;;;;;;;;;;5078720;28;20227;-75
2024/02/07 14:23:59;;;;;;;34.65;32.20;;;;;;;;;;5076385;28;20265;-75
2024/02/07 14:26:27;;;;;;;38.08;34.85;;;;;;;;;;5075948;28;20566;-82
2024/02/07 14:28:54;;;;;;;35.50;32.90;;;;;;;;;;5075838;28;20257;-75
2024/02/07 14:31:24;;;;;;;34.58;31.85;;;;;;;;;;5082488;28;20731;-76
2024/02/07 14:33:51;;;;;;;33.57;31.00;;;;;;;;;;5108511;28;20206;-76
2024/02/07 14:36:19;;;;;;;32.90;30.45;;;;;;;;;;5116218;28;20478;-75
2024/02/07 14:38:46;;;;;;;31.98;29.58;;;;;;;;;;5115872;28;20697;-75
2024/02/07 14:41:14;;;;;;;34.67;31.42;;;;;;;;;;5113255;28;20213;-74
2024/02/07 14:43:42;;;;;;;31.48;29.13;;;;;;;;;;5113600;28;20206;-74
2024/02/07 14:46:10;;;;;;;28.25;25.75;;;;;;;;;;5102315;28;20575;-73
2024/02/07 14:48:37;;;;;;;33.10;25.77;;;;;;;;;;5092857;28;20234;-75
2024/02/07 14:51:04;;;;;;;26.10;23.45;;;;;;;;;;5072860;28;20207;-74
2024/02/07 14:53:31;;;;;;;25.88;23.67;;;;;;;;;;5072848;28;20261;-73
2024/02/07 14:55:59;;;;;;;25.63;23.85;;;;;;;;;;5072578;28;20216;-75
2024/02/07 14:58:29;;;;;;;25.73;23.38;;;;;;;;;;5071621;28;20229;-75
2024/02/07 15:00:57;;;;;;;25.67;23.48;;;;;;;;;;5073066;28;20299;-75
2024/02/07 15:03:24;;;;;;;26.70;24.27;;;;;;;;;;5084292;28;20207;-75
2024/02/07 15:05:51;;;;;;;24.10;22.35;;;;;;;;;;5086113;28;20206;-75
2024/02/07 15:08:20;;;;;;;26.38;24.23;;;;;;;;;;5091206;28;20241;-74
2024/02/07 15:10:47;;;;;;;23.75;21.48;;;;;;;;;;5092731;28;20298;-73
2024/02/07 15:13:14;;;;;;;25.90;23.90;;;;;;;;;;5093301;28;20206;-86
2024/02/07 15:15:43;;;;;;;26.63;24.08;;;;;;;;;;5092248;28;20256;-74
2024/02/07 15:18:10;;;;;;;25.17;22.67;;;;;;;;;;5086940;28;20223;-83
2024/02/07 15:20:37;;;;;;;24.67;22.10;;;;;;;;;;5083445;28;20210;-75
2024/02/07 15:23:05;;;;;;;22.88;21.17;;;;;;;;;;5072158;28;20196;-74
2024/02/07 15:25:34;;;;;;;23.73;21.43;;;;;;;;;;5071988;28;20199;-75
2024/02/07 15:28:01;;;;;;;23.95;22.13;;;;;;;;;;5070391;28;20476;-75